createdAt,value
2022-08-31T00:00:01.375Z,42.20
2022-08-31T00:00:32.823Z,42.28
2022-08-31T00:01:04.260Z,42.40
2022-08-31T00:01:35.691Z,42.32
2022-08-31T00:02:07.196Z,42.17
2022-08-31T00:02:39.030Z,42.17
2022-08-31T00:03:10.521Z,42.00
2022-08-31T00:03:41.985Z,42.63
2022-08-31T00:04:13.441Z,42.31
2022-08-31T00:04:44.985Z,41.85
2022-08-31T00:05:16.465Z,41.87
2022-08-31T00:05:47.905Z,41.85
2022-08-31T00:06:19.329Z,42.29
2022-08-31T00:06:51.412Z,42.36
2022-08-31T00:07:25.608Z,42.21
2022-08-31T00:07:57.148Z,41.91
2022-08-31T00:08:28.591Z,42.14
2022-08-31T00:09:00.047Z,42.45
2022-08-31T00:09:31.494Z,42.06
2022-08-31T00:10:02.932Z,42.51
2022-08-31T00:10:36.815Z,41.98
2022-08-31T00:11:08.716Z,41.91
2022-08-31T00:11:41.100Z,42.02
2022-08-31T00:12:13.575Z,42.00
2022-08-31T00:12:45.392Z,42.08
2022-08-31T00:13:18.030Z,41.95
2022-08-31T00:13:49.668Z,42.01
2022-08-31T00:14:21.122Z,42.10
2022-08-31T00:14:52.550Z,42.01
2022-08-31T00:15:25.580Z,42.50
2022-08-31T00:15:57.157Z,42.66
2022-08-31T00:16:28.614Z,42.03
2022-08-31T00:17:00.133Z,42.48
2022-08-31T00:17:31.555Z,42.45
2022-08-31T00:18:03.038Z,42.37
2022-08-31T00:18:34.465Z,42.10
2022-08-31T00:19:05.894Z,42.01
2022-08-31T00:19:37.326Z,41.93
2022-08-31T00:20:08.760Z,42.18
2022-08-31T00:21:00.170Z,42.05
2022-08-31T00:21:31.715Z,42.42
2022-08-31T00:22:03.141Z,42.34
2022-08-31T00:22:34.578Z,42.28
2022-08-31T00:23:06.176Z,42.62
2022-08-31T00:23:37.611Z,42.34
2022-08-31T00:24:09.052Z,42.13
2022-08-31T00:24:40.676Z,42.41
2022-08-31T00:25:12.109Z,41.99
2022-08-31T00:25:43.540Z,42.72
2022-08-31T00:26:14.978Z,42.44
2022-08-31T00:26:46.418Z,42.32
2022-08-31T00:27:17.853Z,42.26
2022-08-31T00:27:49.280Z,42.20
2022-08-31T00:28:20.825Z,42.62
2022-08-31T00:28:52.261Z,42.41
2022-08-31T00:29:23.696Z,42.80
2022-08-31T00:29:55.136Z,42.44
2022-08-31T00:30:27.172Z,42.45
2022-08-31T00:30:58.609Z,42.59
2022-08-31T00:31:30.205Z,42.20
2022-08-31T00:32:01.809Z,42.42
2022-08-31T00:32:33.284Z,42.37
2022-08-31T00:33:04.706Z,42.43
2022-08-31T00:33:36.172Z,42.03
2022-08-31T00:34:07.615Z,42.52
2022-08-31T00:34:39.048Z,42.59
2022-08-31T00:35:10.960Z,42.38
2022-08-31T00:35:42.400Z,42.45
2022-08-31T00:36:13.825Z,41.83
2022-08-31T00:36:45.249Z,42.69
2022-08-31T00:37:16.688Z,42.36
2022-08-31T00:37:48.115Z,42.38
2022-08-31T00:38:19.549Z,42.46
2022-08-31T00:38:51.011Z,42.51
2022-08-31T00:39:22.443Z,42.84
2022-08-31T00:39:53.863Z,42.66
2022-08-31T00:40:25.397Z,42.45
2022-08-31T00:40:56.963Z,42.23
2022-08-31T00:41:28.459Z,42.61
2022-08-31T00:41:59.893Z,42.73
2022-08-31T00:42:31.336Z,42.34
2022-08-31T00:43:02.763Z,42.38
2022-08-31T00:43:36.951Z,42.20
2022-08-31T00:44:08.404Z,42.37
2022-08-31T00:44:39.833Z,42.43
2022-08-31T00:45:11.264Z,42.37
2022-08-31T00:45:42.747Z,42.88
2022-08-31T00:46:14.337Z,42.70
2022-08-31T00:46:45.786Z,42.84
2022-08-31T00:47:17.215Z,42.90
2022-08-31T00:47:48.645Z,42.42
2022-08-31T00:48:20.080Z,42.71
2022-08-31T00:48:51.508Z,42.61
2022-08-31T00:49:23.099Z,42.22
2022-08-31T00:49:54.531Z,42.75
2022-08-31T00:50:25.964Z,42.54
2022-08-31T00:50:57.395Z,42.63
2022-08-31T00:51:28.821Z,42.70
2022-08-31T00:52:00.253Z,42.14
2022-08-31T00:52:37.523Z,42.49
2022-08-31T00:53:09.445Z,42.37
2022-08-31T00:53:40.876Z,42.39
2022-08-31T00:54:12.309Z,42.78
2022-08-31T00:54:43.819Z,42.43
2022-08-31T00:55:15.252Z,42.44
2022-08-31T00:55:46.684Z,42.82
2022-08-31T00:56:18.108Z,42.23
2022-08-31T00:56:49.537Z,42.28
2022-08-31T00:57:20.975Z,42.67
2022-08-31T00:58:05.496Z,42.79
2022-08-31T00:58:36.931Z,42.79
2022-08-31T00:59:08.363Z,42.47
2022-08-31T00:59:39.906Z,42.53
2022-08-31T01:00:11.350Z,42.93
2022-08-31T01:00:42.835Z,42.39
2022-08-31T01:01:14.345Z,42.54
2022-08-31T01:01:46.815Z,42.50
2022-08-31T01:02:18.359Z,42.61
2022-08-31T01:02:49.837Z,42.71
2022-08-31T01:03:21.263Z,42.51
2022-08-31T01:03:52.698Z,42.75
2022-08-31T01:04:24.131Z,42.51
2022-08-31T01:04:55.648Z,42.80
2022-08-31T01:05:27.101Z,42.45
2022-08-31T01:05:58.537Z,42.31
2022-08-31T01:06:30.202Z,42.60
2022-08-31T01:07:01.646Z,42.68
2022-08-31T01:07:33.083Z,42.75
2022-08-31T01:08:04.526Z,42.71
2022-08-31T01:08:35.956Z,42.54
2022-08-31T01:09:07.384Z,42.73
2022-08-31T01:09:38.813Z,42.46
2022-08-31T01:10:12.790Z,42.99
2022-08-31T01:10:44.235Z,42.56
2022-08-31T01:11:15.756Z,42.75
2022-08-31T01:11:47.189Z,42.45
2022-08-31T01:12:18.622Z,42.80
2022-08-31T01:12:50.562Z,42.39
2022-08-31T01:13:22.078Z,42.68
2022-08-31T01:13:53.503Z,42.48
2022-08-31T01:14:24.928Z,42.96
2022-08-31T01:14:56.360Z,42.76
2022-08-31T01:15:27.873Z,42.56
2022-08-31T01:15:59.350Z,42.90
2022-08-31T01:16:30.902Z,42.78
2022-08-31T01:17:02.384Z,43.00
2022-08-31T01:17:33.894Z,42.83
2022-08-31T01:18:05.325Z,42.52
2022-08-31T01:18:36.752Z,42.97
2022-08-31T01:19:08.181Z,42.52
2022-08-31T01:19:39.608Z,42.72
2022-08-31T01:20:11.267Z,42.97
2022-08-31T01:20:42.713Z,42.92
2022-08-31T01:21:20.369Z,42.92
2022-08-31T01:21:51.970Z,42.94
2022-08-31T01:22:23.412Z,42.57
2022-08-31T01:22:54.840Z,42.80
2022-08-31T01:23:26.275Z,42.59
2022-08-31T01:23:57.722Z,43.09
2022-08-31T01:24:29.154Z,42.48
2022-08-31T01:25:00.589Z,42.64
2022-08-31T01:25:33.546Z,42.59
2022-08-31T01:26:05.454Z,42.66
2022-08-31T01:26:36.883Z,42.57
2022-08-31T01:27:08.312Z,42.48
2022-08-31T01:27:39.741Z,42.96
2022-08-31T01:28:11.166Z,42.46
2022-08-31T01:28:42.598Z,42.59
2022-08-31T01:29:14.028Z,42.75
2022-08-31T01:29:48.818Z,42.70
2022-08-31T01:30:20.251Z,42.62
2022-08-31T01:30:51.819Z,42.89
2022-08-31T01:31:23.301Z,42.78
2022-08-31T01:31:54.826Z,42.59
2022-08-31T01:32:26.301Z,42.95
2022-08-31T01:32:57.742Z,43.00
2022-08-31T01:33:29.233Z,42.82
2022-08-31T01:34:00.661Z,43.08
2022-08-31T01:34:32.092Z,42.78
2022-08-31T01:35:03.519Z,42.73
2022-08-31T01:35:34.952Z,42.90
2022-08-31T01:36:06.496Z,42.90
2022-08-31T01:36:37.930Z,42.66
2022-08-31T01:37:09.364Z,42.50
2022-08-31T01:37:40.796Z,42.74
2022-08-31T01:38:12.229Z,42.80
2022-08-31T01:38:43.664Z,42.81
2022-08-31T01:39:15.089Z,43.11
2022-08-31T01:39:46.524Z,42.62
2022-08-31T01:40:17.999Z,42.76
2022-08-31T01:40:49.558Z,42.66
2022-08-31T01:41:21.177Z,42.62
2022-08-31T01:41:52.613Z,42.94
2022-08-31T01:42:33.212Z,42.68
2022-08-31T01:43:05.927Z,42.88
2022-08-31T01:43:37.358Z,42.87
2022-08-31T01:44:08.805Z,42.40
2022-08-31T01:44:40.287Z,43.24
2022-08-31T01:45:11.717Z,42.82
2022-08-31T01:45:43.160Z,42.93
2022-08-31T01:46:14.731Z,42.46
2022-08-31T01:46:46.358Z,42.43
2022-08-31T01:47:17.841Z,43.12
2022-08-31T01:47:52.582Z,43.28
2022-08-31T01:48:24.008Z,42.79
2022-08-31T01:48:55.433Z,42.78
2022-08-31T01:49:26.869Z,42.65
2022-08-31T01:49:58.296Z,42.80
2022-08-31T01:50:29.727Z,42.82
2022-08-31T01:51:01.162Z,42.69
2022-08-31T01:51:32.621Z,42.90
2022-08-31T01:52:04.133Z,42.80
2022-08-31T01:52:35.567Z,43.01
2022-08-31T01:53:07.001Z,43.13
2022-08-31T01:53:38.433Z,42.65
2022-08-31T01:54:10.900Z,42.56
2022-08-31T01:54:42.334Z,42.56
2022-08-31T01:55:13.785Z,42.56
2022-08-31T01:55:45.221Z,43.01
2022-08-31T01:56:16.659Z,42.86
2022-08-31T01:56:48.183Z,42.80
2022-08-31T01:57:19.614Z,42.74
2022-08-31T01:58:05.324Z,42.56
2022-08-31T01:58:36.762Z,42.85
2022-08-31T01:59:08.526Z,42.89
2022-08-31T01:59:40.067Z,43.28
2022-08-31T02:00:11.501Z,42.80
2022-08-31T02:00:42.991Z,42.65
2022-08-31T02:01:32.965Z,43.16
2022-08-31T02:02:05.685Z,43.00
2022-08-31T02:02:37.265Z,42.52
2022-08-31T02:03:08.784Z,42.90
2022-08-31T02:03:40.221Z,42.86
2022-08-31T02:04:11.656Z,42.80
2022-08-31T02:04:43.089Z,42.69
2022-08-31T02:05:14.540Z,42.59
2022-08-31T02:05:45.993Z,43.01
2022-08-31T02:06:17.421Z,43.01
2022-08-31T02:06:48.847Z,42.96
2022-08-31T02:07:20.318Z,42.75
2022-08-31T02:07:51.754Z,42.55
2022-08-31T02:08:23.191Z,42.82
2022-08-31T02:08:54.638Z,43.06
2022-08-31T02:09:26.070Z,42.63
2022-08-31T02:09:57.495Z,42.90
2022-08-31T02:10:28.926Z,43.12
2022-08-31T02:11:00.574Z,43.26
2022-08-31T02:11:32.020Z,42.97
2022-08-31T02:12:03.449Z,42.79
2022-08-31T02:12:34.987Z,43.11
2022-08-31T02:13:06.427Z,43.19
2022-08-31T02:13:37.855Z,43.14
2022-08-31T02:14:09.285Z,43.02
2022-08-31T02:14:40.716Z,43.05
2022-08-31T02:15:12.205Z,42.69
2022-08-31T02:15:43.634Z,42.85
2022-08-31T02:16:15.094Z,43.22
2022-08-31T02:16:46.570Z,43.08
2022-08-31T02:17:18.082Z,42.92
2022-08-31T02:17:49.661Z,42.93
2022-08-31T02:18:24.284Z,42.46
2022-08-31T02:18:55.720Z,42.80
2022-08-31T02:19:27.155Z,43.29
2022-08-31T02:19:58.579Z,43.00
2022-08-31T02:20:30.008Z,42.91
2022-08-31T02:21:01.427Z,43.00
2022-08-31T02:21:32.857Z,42.97
2022-08-31T02:22:08.406Z,43.11
2022-08-31T02:22:39.841Z,42.95
2022-08-31T02:23:11.368Z,42.73
2022-08-31T02:23:42.839Z,43.28
2022-08-31T02:24:14.277Z,42.66
2022-08-31T02:24:45.717Z,43.31
2022-08-31T02:25:17.151Z,43.28
2022-08-31T02:25:48.584Z,42.93
2022-08-31T02:26:20.021Z,42.89
2022-08-31T02:26:53.832Z,43.33
2022-08-31T02:27:25.447Z,43.25
2022-08-31T02:27:56.882Z,42.89
2022-08-31T02:28:28.415Z,43.15
2022-08-31T02:28:59.836Z,43.20
2022-08-31T02:29:31.263Z,43.23
2022-08-31T02:30:02.696Z,43.22
2022-08-31T02:30:34.127Z,43.03
2022-08-31T02:31:05.591Z,43.23
2022-08-31T02:31:37.108Z,43.39
2022-08-31T02:32:08.708Z,42.94
2022-08-31T02:32:46.984Z,43.25
2022-08-31T02:33:18.510Z,43.43
2022-08-31T02:33:50.103Z,43.29
2022-08-31T02:34:21.529Z,43.23
2022-08-31T02:34:52.965Z,43.45
2022-08-31T02:35:24.393Z,42.81
2022-08-31T02:35:55.827Z,43.33
2022-08-31T02:36:27.868Z,43.41
2022-08-31T02:37:00.036Z,43.01
2022-08-31T02:37:32.063Z,43.11
2022-08-31T02:38:03.921Z,43.26
2022-08-31T02:38:36.064Z,42.79
2022-08-31T02:39:07.605Z,42.84
2022-08-31T02:39:39.047Z,42.96
2022-08-31T02:40:11.981Z,43.09
2022-08-31T02:40:44.750Z,42.98
2022-08-31T02:41:16.243Z,42.88
2022-08-31T02:41:47.674Z,43.32
2022-08-31T02:42:19.106Z,43.05
2022-08-31T02:42:53.560Z,43.29
2022-08-31T02:43:25.657Z,43.32
2022-08-31T02:43:57.401Z,43.64
2022-08-31T02:44:28.835Z,43.42
2022-08-31T02:45:00.315Z,43.06
2022-08-31T02:45:31.872Z,43.51
2022-08-31T02:46:03.375Z,43.22
2022-08-31T02:46:35.103Z,43.11
2022-08-31T02:47:06.652Z,43.36
2022-08-31T02:47:38.117Z,42.84
2022-08-31T02:48:09.547Z,42.89
2022-08-31T02:48:40.977Z,42.98
2022-08-31T02:49:12.479Z,43.27
2022-08-31T02:49:43.908Z,43.06
2022-08-31T02:50:15.342Z,43.07
2022-08-31T02:50:46.785Z,43.10
2022-08-31T02:51:18.215Z,43.24
2022-08-31T02:51:49.645Z,43.15
2022-08-31T02:52:21.138Z,42.85
2022-08-31T02:52:52.568Z,43.16
2022-08-31T02:53:24.005Z,43.48
2022-08-31T02:53:55.436Z,43.29
2022-08-31T02:54:27.017Z,43.23
2022-08-31T02:54:58.445Z,43.55
2022-08-31T02:55:29.866Z,43.33
2022-08-31T02:56:01.298Z,43.30
2022-08-31T02:56:32.741Z,43.06
2022-08-31T02:57:04.210Z,43.23
2022-08-31T02:57:35.646Z,43.09
2022-08-31T02:58:07.086Z,43.20
2022-08-31T02:58:38.544Z,43.20
2022-08-31T02:59:09.982Z,43.38
2022-08-31T02:59:41.464Z,43.44
2022-08-31T03:00:12.900Z,43.26
2022-08-31T03:00:44.327Z,42.96
2022-08-31T03:01:15.818Z,43.27
2022-08-31T03:01:47.402Z,43.07
2022-08-31T03:02:19.024Z,42.87
2022-08-31T03:02:50.591Z,43.32
2022-08-31T03:03:22.053Z,43.15
2022-08-31T03:03:53.589Z,43.24
2022-08-31T03:04:25.016Z,43.30
2022-08-31T03:04:56.512Z,43.38
2022-08-31T03:05:27.947Z,43.58
2022-08-31T03:05:59.389Z,43.12
2022-08-31T03:06:30.822Z,43.39
2022-08-31T03:07:02.258Z,43.37
2022-08-31T03:07:33.696Z,43.61
2022-08-31T03:08:05.139Z,43.29
2022-08-31T03:08:36.567Z,43.51
2022-08-31T03:09:08.006Z,43.46
2022-08-31T03:09:39.436Z,42.97
2022-08-31T03:10:10.967Z,43.06
2022-08-31T03:10:42.409Z,43.38
2022-08-31T03:11:13.852Z,42.92
2022-08-31T03:11:45.297Z,43.27
2022-08-31T03:12:16.741Z,43.53
2022-08-31T03:12:48.172Z,43.57
2022-08-31T03:13:19.718Z,42.87
2022-08-31T03:13:53.283Z,42.96
2022-08-31T03:14:27.970Z,43.63
2022-08-31T03:14:59.432Z,43.35
2022-08-31T03:15:31.024Z,43.35
2022-08-31T03:16:02.558Z,43.32
2022-08-31T03:16:34.045Z,43.61
2022-08-31T03:17:05.479Z,43.07
2022-08-31T03:17:36.907Z,43.29
2022-08-31T03:18:08.337Z,43.26
2022-08-31T03:18:39.779Z,43.53
2022-08-31T03:19:11.205Z,43.32
2022-08-31T03:19:42.643Z,43.08
2022-08-31T03:20:14.069Z,43.29
2022-08-31T03:20:45.516Z,43.67
2022-08-31T03:21:16.955Z,43.21
2022-08-31T03:21:48.431Z,43.65
2022-08-31T03:22:27.285Z,43.58
2022-08-31T03:22:59.509Z,43.65
2022-08-31T03:23:31.014Z,43.35
2022-08-31T03:24:02.453Z,43.40
2022-08-31T03:24:33.893Z,43.56
2022-08-31T03:25:05.336Z,43.26
2022-08-31T03:25:38.135Z,43.16
2022-08-31T03:26:11.270Z,43.50
2022-08-31T03:26:42.704Z,43.29
2022-08-31T03:27:14.249Z,43.21
2022-08-31T03:27:45.681Z,43.66
2022-08-31T03:28:17.119Z,43.44
2022-08-31T03:28:48.551Z,43.58
2022-08-31T03:29:19.977Z,43.09
2022-08-31T03:29:51.410Z,43.28
2022-08-31T03:30:22.835Z,43.31
2022-08-31T03:30:54.747Z,43.33
2022-08-31T03:31:26.238Z,43.33
2022-08-31T03:31:57.701Z,43.67
2022-08-31T03:32:29.233Z,43.59
2022-08-31T03:33:02.850Z,43.29
2022-08-31T03:33:34.485Z,42.96
2022-08-31T03:34:05.912Z,43.42
2022-08-31T03:34:37.340Z,43.72
2022-08-31T03:35:08.769Z,42.99
2022-08-31T03:35:40.205Z,43.13
2022-08-31T03:36:11.653Z,43.64
2022-08-31T03:36:43.075Z,43.31
2022-08-31T03:37:14.500Z,43.74
2022-08-31T03:37:45.936Z,43.73
2022-08-31T03:38:17.374Z,43.40
2022-08-31T03:38:48.799Z,43.62
2022-08-31T03:39:20.233Z,43.38
2022-08-31T03:39:51.664Z,43.33
2022-08-31T03:40:23.178Z,43.18
2022-08-31T03:40:54.715Z,43.12
2022-08-31T03:41:26.154Z,43.64
2022-08-31T03:41:57.579Z,43.26
2022-08-31T03:42:29.017Z,43.31
2022-08-31T03:43:03.705Z,43.49
2022-08-31T03:43:35.144Z,43.80
2022-08-31T03:44:06.576Z,43.17
2022-08-31T03:44:38.013Z,43.45
2022-08-31T03:45:09.441Z,43.11
2022-08-31T03:45:40.873Z,43.24
2022-08-31T03:46:12.464Z,43.49
2022-08-31T03:46:44.023Z,43.06
2022-08-31T03:47:15.478Z,43.53
2022-08-31T03:47:48.560Z,43.41
2022-08-31T03:48:20.121Z,43.62
2022-08-31T03:48:51.559Z,43.12
2022-08-31T03:49:22.978Z,43.18
2022-08-31T03:49:54.417Z,43.71
2022-08-31T03:50:25.849Z,43.04
2022-08-31T03:50:57.276Z,43.26
2022-08-31T03:51:29.058Z,43.19
2022-08-31T03:52:00.492Z,42.85
2022-08-31T03:52:31.926Z,43.26
2022-08-31T03:53:03.368Z,43.40
2022-08-31T03:53:34.893Z,43.98
2022-08-31T03:54:06.320Z,43.45
2022-08-31T03:54:37.753Z,43.77
2022-08-31T03:55:09.184Z,43.48
2022-08-31T03:55:40.613Z,43.73
2022-08-31T03:56:12.045Z,43.64
2022-08-31T03:56:43.468Z,43.81
2022-08-31T03:57:14.901Z,43.80
2022-08-31T03:57:46.340Z,43.35
2022-08-31T03:58:17.773Z,43.04
2022-08-31T03:58:49.277Z,42.91
2022-08-31T03:59:20.714Z,43.29
2022-08-31T03:59:52.143Z,43.58
2022-08-31T04:00:23.579Z,43.78
2022-08-31T04:00:55.013Z,43.28
2022-08-31T04:01:26.493Z,43.19
2022-08-31T04:01:58.045Z,43.33
2022-08-31T04:02:32.917Z,43.66
2022-08-31T04:03:07.013Z,43.79
2022-08-31T04:03:38.497Z,43.49
2022-08-31T04:04:09.950Z,43.44
2022-08-31T04:04:41.380Z,43.44
2022-08-31T04:05:12.804Z,43.36
2022-08-31T04:05:44.239Z,43.16
2022-08-31T04:06:15.681Z,43.54
2022-08-31T04:06:47.108Z,43.58
2022-08-31T04:07:18.546Z,43.59
2022-08-31T04:07:49.976Z,43.85
2022-08-31T04:08:21.404Z,43.43
2022-08-31T04:08:52.911Z,43.63
2022-08-31T04:09:27.554Z,43.50
2022-08-31T04:09:58.999Z,43.38
2022-08-31T04:10:30.432Z,43.58
2022-08-31T04:11:01.874Z,43.59
2022-08-31T04:11:45.119Z,43.68
2022-08-31T04:12:17.122Z,43.65
2022-08-31T04:12:48.548Z,43.50
2022-08-31T04:13:20.151Z,43.59
2022-08-31T04:13:51.660Z,43.53
2022-08-31T04:14:23.124Z,43.43
2022-08-31T04:14:54.551Z,43.47
2022-08-31T04:15:25.980Z,43.51
2022-08-31T04:16:00.953Z,43.54
2022-08-31T04:16:32.439Z,43.55
2022-08-31T04:17:03.870Z,43.97
2022-08-31T04:17:35.303Z,43.43
2022-08-31T04:18:06.728Z,43.51
2022-08-31T04:18:38.151Z,43.22
2022-08-31T04:19:09.572Z,43.66
2022-08-31T04:19:41.046Z,43.65
2022-08-31T04:20:12.476Z,43.22
2022-08-31T04:20:43.903Z,43.94
2022-08-31T04:21:15.348Z,43.65
2022-08-31T04:21:46.854Z,43.87
2022-08-31T04:22:18.287Z,43.35
2022-08-31T04:22:49.729Z,43.61
2022-08-31T04:23:21.170Z,43.44
2022-08-31T04:23:52.603Z,43.81
2022-08-31T04:24:24.035Z,43.71
2022-08-31T04:24:55.578Z,43.61
2022-08-31T04:25:27.009Z,43.56
2022-08-31T04:25:58.447Z,43.73
2022-08-31T04:26:29.877Z,43.49
2022-08-31T04:27:02.248Z,43.69
2022-08-31T04:27:33.680Z,43.60
2022-08-31T04:28:05.115Z,43.66
2022-08-31T04:28:36.546Z,43.43
2022-08-31T04:29:12.823Z,43.56
2022-08-31T04:29:44.957Z,43.31
2022-08-31T04:30:16.408Z,43.70
2022-08-31T04:30:47.932Z,43.58
2022-08-31T04:31:19.479Z,43.40
2022-08-31T04:31:50.943Z,43.65
2022-08-31T04:32:22.383Z,43.72
2022-08-31T04:32:53.821Z,43.78
2022-08-31T04:33:25.254Z,43.83
2022-08-31T04:33:56.676Z,43.59
2022-08-31T04:34:28.106Z,43.98
2022-08-31T04:34:59.547Z,43.65
2022-08-31T04:35:31.065Z,43.62
2022-08-31T04:36:02.501Z,43.68
2022-08-31T04:36:33.933Z,43.64
2022-08-31T04:37:05.366Z,44.04
2022-08-31T04:37:38.109Z,43.96
2022-08-31T04:38:12.755Z,43.50
2022-08-31T04:38:44.187Z,43.74
2022-08-31T04:39:15.616Z,43.79
2022-08-31T04:39:50.961Z,43.60
2022-08-31T04:40:25.580Z,43.14
2022-08-31T04:40:57.830Z,43.73
2022-08-31T04:41:29.277Z,43.53
2022-08-31T04:42:00.712Z,43.63
2022-08-31T04:42:32.144Z,43.42
2022-08-31T04:43:03.563Z,43.51
2022-08-31T04:43:34.995Z,43.51
2022-08-31T04:44:06.421Z,43.91
2022-08-31T04:44:37.860Z,43.80
2022-08-31T04:45:09.309Z,43.58
2022-08-31T04:45:40.909Z,43.86
2022-08-31T04:46:13.417Z,43.65
2022-08-31T04:46:44.906Z,43.76
2022-08-31T04:47:16.334Z,43.94
2022-08-31T04:47:47.760Z,43.75
2022-08-31T04:48:19.195Z,43.60
2022-08-31T04:48:50.628Z,44.24
2022-08-31T04:49:22.060Z,43.66
2022-08-31T04:49:53.485Z,43.88
2022-08-31T04:50:24.915Z,44.05
2022-08-31T04:50:56.367Z,44.01
2022-08-31T04:51:27.803Z,43.59
2022-08-31T04:51:59.237Z,43.64
2022-08-31T04:52:34.657Z,43.48
2022-08-31T04:53:06.189Z,43.86
2022-08-31T04:53:37.616Z,43.82
2022-08-31T04:54:09.044Z,43.81
2022-08-31T04:54:40.474Z,43.72
2022-08-31T04:55:11.898Z,43.91
2022-08-31T04:55:43.332Z,43.73
2022-08-31T04:56:14.816Z,43.45
2022-08-31T04:56:46.253Z,43.44
2022-08-31T04:57:17.690Z,43.76
2022-08-31T04:57:49.128Z,44.08
2022-08-31T04:58:22.329Z,43.73
2022-08-31T04:58:53.755Z,43.72
2022-08-31T04:59:25.179Z,43.97
2022-08-31T04:59:56.724Z,43.43
2022-08-31T05:00:28.147Z,43.66
2022-08-31T05:00:59.623Z,43.67
2022-08-31T05:01:36.124Z,44.03
2022-08-31T05:02:14.710Z,43.75
2022-08-31T05:02:51.351Z,43.69
2022-08-31T05:03:24.287Z,43.62
2022-08-31T05:03:55.716Z,43.42
2022-08-31T05:04:27.155Z,43.95
2022-08-31T05:04:58.587Z,43.85
2022-08-31T05:05:30.025Z,43.89
2022-08-31T05:06:01.466Z,43.47
2022-08-31T05:06:32.987Z,43.92
2022-08-31T05:07:04.419Z,43.74
2022-08-31T05:07:35.841Z,44.06
2022-08-31T05:08:07.323Z,43.59
2022-08-31T05:08:38.750Z,43.50
2022-08-31T05:09:10.188Z,44.07
2022-08-31T05:09:41.617Z,43.63
2022-08-31T05:10:13.061Z,43.76
2022-08-31T05:10:44.496Z,43.81
2022-08-31T05:11:15.928Z,44.04
2022-08-31T05:11:47.491Z,43.92
2022-08-31T05:12:18.930Z,43.85
2022-08-31T05:12:50.359Z,43.49
2022-08-31T05:13:21.791Z,43.83
2022-08-31T05:13:53.219Z,43.70
2022-08-31T05:14:24.659Z,43.98
2022-08-31T05:14:56.096Z,43.89
2022-08-31T05:15:27.532Z,43.97
2022-08-31T05:15:59.003Z,43.63
2022-08-31T05:16:30.535Z,43.64
2022-08-31T05:17:02.026Z,44.02
2022-08-31T05:17:33.453Z,43.85
2022-08-31T05:18:04.881Z,43.86
2022-08-31T05:18:36.313Z,43.92
2022-08-31T05:19:07.747Z,43.68
2022-08-31T05:19:41.142Z,43.77
2022-08-31T05:20:12.849Z,43.50
2022-08-31T05:20:44.285Z,43.72
2022-08-31T05:21:15.719Z,43.80
2022-08-31T05:21:47.149Z,43.97
2022-08-31T05:22:18.666Z,43.77
2022-08-31T05:22:50.102Z,43.77
2022-08-31T05:23:21.540Z,43.78
2022-08-31T05:23:52.969Z,43.96
2022-08-31T05:24:24.856Z,43.83
2022-08-31T05:24:56.356Z,43.56
2022-08-31T05:25:27.790Z,44.16
2022-08-31T05:25:59.219Z,43.73
2022-08-31T05:26:30.649Z,43.79
2022-08-31T05:27:02.080Z,43.95
2022-08-31T05:27:33.628Z,43.80
2022-08-31T05:28:05.066Z,43.80
2022-08-31T05:28:36.501Z,44.00
2022-08-31T05:29:07.932Z,44.11
2022-08-31T05:29:40.338Z,43.73
2022-08-31T05:30:11.768Z,43.92
2022-08-31T05:30:43.262Z,44.08
2022-08-31T05:31:14.782Z,43.74
2022-08-31T05:31:50.222Z,43.71
2022-08-31T05:32:23.559Z,43.66
2022-08-31T05:32:56.921Z,44.03
2022-08-31T05:33:28.350Z,43.49
2022-08-31T05:33:59.770Z,43.65
2022-08-31T05:34:31.198Z,43.79
2022-08-31T05:35:02.631Z,43.75
2022-08-31T05:35:34.064Z,43.77
2022-08-31T05:36:05.496Z,43.72
2022-08-31T05:36:36.939Z,44.13
2022-08-31T05:37:08.375Z,44.09
2022-08-31T05:37:39.818Z,43.84
2022-08-31T05:38:11.384Z,43.86
2022-08-31T05:38:42.814Z,43.49
2022-08-31T05:39:14.252Z,43.59
2022-08-31T05:39:45.685Z,44.00
2022-08-31T05:40:18.166Z,43.84
2022-08-31T05:40:49.652Z,43.69
2022-08-31T05:41:21.297Z,43.70
2022-08-31T05:41:52.729Z,43.74
2022-08-31T05:42:24.156Z,43.84
2022-08-31T05:42:55.579Z,43.88
2022-08-31T05:43:27.077Z,43.89
2022-08-31T05:43:58.504Z,43.65
2022-08-31T05:44:29.939Z,43.59
2022-08-31T05:45:01.368Z,43.99
2022-08-31T05:45:32.791Z,43.64
2022-08-31T05:46:08.085Z,43.75
2022-08-31T05:46:41.702Z,43.77
2022-08-31T05:47:13.159Z,44.10
2022-08-31T05:47:44.626Z,43.93
2022-08-31T05:48:16.056Z,43.74
2022-08-31T05:48:49.451Z,44.04
2022-08-31T05:49:21.153Z,43.57
2022-08-31T05:49:52.580Z,44.01
2022-08-31T05:50:24.023Z,43.79
2022-08-31T05:50:55.463Z,43.83
2022-08-31T05:51:26.888Z,43.83
2022-08-31T05:51:58.315Z,43.78
2022-08-31T05:52:29.748Z,43.58
2022-08-31T05:53:01.183Z,43.60
2022-08-31T05:53:32.714Z,43.51
2022-08-31T05:54:04.222Z,43.86
2022-08-31T05:54:35.660Z,43.89
2022-08-31T05:55:07.088Z,43.89
2022-08-31T05:55:38.520Z,43.65
2022-08-31T05:56:09.953Z,43.86
2022-08-31T05:56:41.384Z,43.56
2022-08-31T05:57:14.369Z,43.56
2022-08-31T05:57:46.014Z,43.85
2022-08-31T05:58:17.446Z,43.83
2022-08-31T05:58:48.871Z,43.74
2022-08-31T05:59:20.328Z,43.80
2022-08-31T05:59:51.765Z,43.58
2022-08-31T06:00:23.197Z,43.56
2022-08-31T06:00:54.623Z,44.12
2022-08-31T06:01:26.094Z,43.90
2022-08-31T06:01:57.590Z,43.80
2022-08-31T06:02:29.669Z,43.95
2022-08-31T06:03:01.144Z,43.67
2022-08-31T06:03:32.578Z,44.05
2022-08-31T06:04:04.007Z,43.72
2022-08-31T06:04:35.503Z,43.87
2022-08-31T06:05:07.051Z,44.10
2022-08-31T06:05:38.576Z,43.97
2022-08-31T06:06:10.046Z,43.92
2022-08-31T06:06:41.663Z,43.87
2022-08-31T06:07:13.194Z,43.88
2022-08-31T06:07:44.628Z,44.16
2022-08-31T06:08:16.070Z,43.63
2022-08-31T06:08:47.511Z,44.44
2022-08-31T06:09:18.947Z,44.08
2022-08-31T06:09:50.941Z,44.30
2022-08-31T06:10:23.245Z,44.05
2022-08-31T06:10:56.793Z,43.89
2022-08-31T06:11:29.896Z,44.13
2022-08-31T06:12:03.594Z,44.06
2022-08-31T06:12:35.418Z,43.95
2022-08-31T06:13:07.079Z,44.03
2022-08-31T06:13:38.665Z,44.00
2022-08-31T06:14:10.143Z,43.53
2022-08-31T06:14:44.784Z,43.88
2022-08-31T06:15:17.120Z,43.93
2022-08-31T06:15:48.687Z,43.61
2022-08-31T06:16:20.171Z,44.41
2022-08-31T06:16:52.656Z,44.48
2022-08-31T06:17:24.145Z,43.70
2022-08-31T06:17:55.599Z,43.90
2022-08-31T06:18:27.123Z,43.83
2022-08-31T06:18:58.581Z,44.21
2022-08-31T06:19:30.140Z,44.46
2022-08-31T06:20:01.621Z,44.22
2022-08-31T06:20:33.093Z,44.21
2022-08-31T06:21:04.534Z,44.42
2022-08-31T06:21:35.965Z,44.67
2022-08-31T06:22:07.402Z,44.35
2022-08-31T06:22:41.972Z,44.05
2022-08-31T06:23:13.401Z,44.06
2022-08-31T06:23:44.849Z,44.07
2022-08-31T06:24:17.455Z,44.53
2022-08-31T06:24:48.893Z,44.01
2022-08-31T06:25:20.461Z,44.09
2022-08-31T06:25:52.311Z,44.45
2022-08-31T06:26:24.010Z,44.33
2022-08-31T06:26:58.297Z,44.54
2022-08-31T06:27:31.022Z,44.22
2022-08-31T06:28:02.491Z,43.99
2022-08-31T06:28:34.450Z,44.02
2022-08-31T06:29:06.032Z,44.56
2022-08-31T06:29:37.881Z,44.01
2022-08-31T06:30:09.561Z,44.27
2022-08-31T06:30:54.494Z,44.01
2022-08-31T06:31:28.407Z,44.28
2022-08-31T06:31:59.877Z,44.22
2022-08-31T06:32:31.518Z,44.16
2022-08-31T06:33:03.345Z,44.35
2022-08-31T06:33:35.768Z,44.34
2022-08-31T06:34:07.327Z,43.93
2022-08-31T06:34:38.934Z,43.84
2022-08-31T06:35:10.365Z,44.39
2022-08-31T06:35:41.949Z,44.63
2022-08-31T06:36:13.425Z,44.21
2022-08-31T06:36:45.029Z,44.25
2022-08-31T06:37:18.957Z,44.49
2022-08-31T06:37:50.895Z,44.52
2022-08-31T06:38:22.443Z,44.37
2022-08-31T06:38:55.511Z,44.26
2022-08-31T06:39:27.197Z,44.29
2022-08-31T06:39:58.926Z,44.62
2022-08-31T06:40:30.649Z,44.57
2022-08-31T06:41:03.967Z,44.23
2022-08-31T06:41:36.863Z,44.40
2022-08-31T06:42:08.506Z,44.89
2022-08-31T06:42:39.935Z,44.29
2022-08-31T06:43:12.568Z,44.22
2022-08-31T06:43:44.134Z,44.52
2022-08-31T06:44:15.570Z,44.75
2022-08-31T06:44:46.996Z,44.40
2022-08-31T06:45:18.435Z,45.10
2022-08-31T06:45:50.077Z,44.99
2022-08-31T06:46:21.703Z,44.89
2022-08-31T06:46:53.375Z,44.65
2022-08-31T06:47:25.146Z,44.72
2022-08-31T06:47:56.656Z,44.84
2022-08-31T06:48:28.089Z,44.72
2022-08-31T06:48:59.522Z,44.34
2022-08-31T06:49:31.206Z,44.58
2022-08-31T06:50:02.965Z,44.70